sensor_id;sensor_type;location;lat;lon;timestamp;P1;durP1;ratioP1;P2;durP2;ratioP2
2972;SDS011;1496;51.404;7.232;2024-03-02T00:01:26;2.30;;;2.10;;
2972;SDS011;1496;51.404;7.232;2024-03-02T00:03:52;6.20;;;1.90;;
2972;SDS011;1496;51.404;7.232;2024-03-02T00:06:19;2.80;;;2.30;;
2972;SDS011;1496;51.404;7.232;2024-03-02T00:08:46;3.80;;;1.97;;
2972;SDS011;1496;51.404;7.232;2024-03-02T00:14:14;2.17;;;1.70;;
2972;SDS011;1496;51.404;7.232;2024-03-02T00:16:40;3.80;;;2.10;;
2972;SDS011;1496;51.404;7.232;2024-03-02T00:19:06;4.97;;;2.37;;
2972;SDS011;1496;51.404;7.232;2024-03-02T00:21:34;2.20;;;1.50;;
2972;SDS011;1496;51.404;7.232;2024-03-02T00:24:00;2.00;;;1.70;;
2972;SDS011;1496;51.404;7.232;2024-03-02T00:26:30;2.90;;;1.93;;
2972;SDS011;1496;51.404;7.232;2024-03-02T00:28:56;2.03;;;1.87;;
2972;SDS011;1496;51.404;7.232;2024-03-02T00:31:22;2.33;;;1.53;;
2972;SDS011;1496;51.404;7.232;2024-03-02T00:33:48;2.20;;;1.70;;
2972;SDS011;1496;51.404;7.232;2024-03-02T00:36:24;2.53;;;1.83;;
2972;SDS011;1496;51.404;7.232;2024-03-02T00:38:51;1.90;;;1.70;;
2972;SDS011;1496;51.404;7.232;2024-03-02T00:41:21;2.10;;;1.60;;
2972;SDS011;1496;51.404;7.232;2024-03-02T00:46:24;1.50;;;1.37;;
2972;SDS011;1496;51.404;7.232;2024-03-02T00:51:20;2.70;;;1.70;;
2972;SDS011;1496;51.404;7.232;2024-03-02T00:53:47;1.80;;;1.20;;
2972;SDS011;1496;51.404;7.232;2024-03-02T00:56:13;3.30;;;1.60;;
2972;SDS011;1496;51.404;7.232;2024-03-02T00:58:39;4.17;;;1.00;;
2972;SDS011;1496;51.404;7.232;2024-03-02T01:01:05;1.73;;;1.27;;
2972;SDS011;1496;51.404;7.232;2024-03-02T01:03:32;6.10;;;2.50;;
2972;SDS011;1496;51.404;7.232;2024-03-02T01:05:58;2.13;;;1.40;;
2972;SDS011;1496;51.404;7.232;2024-03-02T01:08:24;2.40;;;1.30;;
2972;SDS011;1496;51.404;7.232;2024-03-02T01:10:54;2.30;;;1.40;;
2972;SDS011;1496;51.404;7.232;2024-03-02T01:13:21;2.37;;;1.23;;
2972;SDS011;1496;51.404;7.232;2024-03-02T01:15:47;2.97;;;1.37;;
2972;SDS011;1496;51.404;7.232;2024-03-02T01:18:13;1.40;;;1.30;;
2972;SDS011;1496;51.404;7.232;2024-03-02T01:20:39;2.30;;;1.43;;
2972;SDS011;1496;51.404;7.232;2024-03-02T01:23:05;5.80;;;1.80;;
2972;SDS011;1496;51.404;7.232;2024-03-02T01:25:31;2.67;;;1.20;;
2972;SDS011;1496;51.404;7.232;2024-03-02T01:27:56;1.20;;;0.97;;
2972;SDS011;1496;51.404;7.232;2024-03-02T01:30:22;2.10;;;1.40;;
2972;SDS011;1496;51.404;7.232;2024-03-02T01:32:47;2.20;;;1.60;;
2972;SDS011;1496;51.404;7.232;2024-03-02T01:35:13;3.83;;;1.37;;
2972;SDS011;1496;51.404;7.232;2024-03-02T01:37:40;3.63;;;1.33;;
2972;SDS011;1496;51.404;7.232;2024-03-02T01:40:06;3.70;;;1.40;;
2972;SDS011;1496;51.404;7.232;2024-03-02T01:42:37;2.23;;;1.53;;
2972;SDS011;1496;51.404;7.232;2024-03-02T01:45:04;1.80;;;1.20;;
2972;SDS011;1496;51.404;7.232;2024-03-02T01:47:31;3.63;;;1.40;;
2972;SDS011;1496;51.404;7.232;2024-03-02T01:49:57;4.40;;;1.33;;
2972;SDS011;1496;51.404;7.232;2024-03-02T01:52:24;1.50;;;1.30;;
2972;SDS011;1496;51.404;7.232;2024-03-02T01:54:50;2.50;;;1.40;;
2972;SDS011;1496;51.404;7.232;2024-03-02T01:57:16;2.43;;;1.27;;
2972;SDS011;1496;51.404;7.232;2024-03-02T01:59:42;2.90;;;1.40;;
2972;SDS011;1496;51.404;7.232;2024-03-02T02:02:12;1.60;;;1.00;;
2972;SDS011;1496;51.404;7.232;2024-03-02T02:04:38;2.27;;;1.23;;
2972;SDS011;1496;51.404;7.232;2024-03-02T02:07:04;1.97;;;1.20;;
2972;SDS011;1496;51.404;7.232;2024-03-02T02:09:33;1.60;;;1.00;;
2972;SDS011;1496;51.404;7.232;2024-03-02T02:11:58;2.97;;;1.03;;
2972;SDS011;1496;51.404;7.232;2024-03-02T02:14:24;1.67;;;1.10;;
2972;SDS011;1496;51.404;7.232;2024-03-02T02:16:50;2.07;;;1.00;;
2972;SDS011;1496;51.404;7.232;2024-03-02T02:19:17;1.97;;;1.10;;
2972;SDS011;1496;51.404;7.232;2024-03-02T02:21:43;2.63;;;0.80;;
2972;SDS011;1496;51.404;7.232;2024-03-02T02:24:11;4.57;;;1.40;;
2972;SDS011;1496;51.404;7.232;2024-03-02T02:26:38;1.90;;;1.10;;
2972;SDS011;1496;51.404;7.232;2024-03-02T02:29:04;1.87;;;1.20;;
2972;SDS011;1496;51.404;7.232;2024-03-02T02:31:36;2.67;;;1.27;;
2972;SDS011;1496;51.404;7.232;2024-03-02T02:34:05;2.60;;;1.20;;
2972;SDS011;1496;51.404;7.232;2024-03-02T02:36:31;2.47;;;1.30;;
2972;SDS011;1496;51.404;7.232;2024-03-02T02:38:59;2.33;;;1.03;;
2972;SDS011;1496;51.404;7.232;2024-03-02T02:41:32;2.13;;;1.37;;
2972;SDS011;1496;51.404;7.232;2024-03-02T02:43:58;2.20;;;1.07;;
2972;SDS011;1496;51.404;7.232;2024-03-02T02:46:23;1.07;;;0.87;;
2972;SDS011;1496;51.404;7.232;2024-03-02T02:48:49;2.00;;;1.10;;
2972;SDS011;1496;51.404;7.232;2024-03-02T02:51:16;1.53;;;1.07;;
2972;SDS011;1496;51.404;7.232;2024-03-02T02:53:42;1.00;;;0.80;;
2972;SDS011;1496;51.404;7.232;2024-03-02T02:56:08;2.23;;;1.30;;
2972;SDS011;1496;51.404;7.232;2024-03-02T02:58:33;1.90;;;1.10;;
2972;SDS011;1496;51.404;7.232;2024-03-02T03:00:59;3.80;;;1.27;;
2972;SDS011;1496;51.404;7.232;2024-03-02T03:03:25;1.50;;;1.27;;
2972;SDS011;1496;51.404;7.232;2024-03-02T03:05:50;1.53;;;1.00;;
2972;SDS011;1496;51.404;7.232;2024-03-02T03:08:16;1.30;;;0.90;;
2972;SDS011;1496;51.404;7.232;2024-03-02T03:10:42;1.83;;;1.30;;
2972;SDS011;1496;51.404;7.232;2024-03-02T03:13:09;2.73;;;1.10;;
2972;SDS011;1496;51.404;7.232;2024-03-02T03:15:35;1.80;;;1.07;;
2972;SDS011;1496;51.404;7.232;2024-03-02T03:18:01;2.90;;;1.03;;
2972;SDS011;1496;51.404;7.232;2024-03-02T03:20:30;1.70;;;0.87;;
2972;SDS011;1496;51.404;7.232;2024-03-02T03:22:56;2.90;;;1.17;;
2972;SDS011;1496;51.404;7.232;2024-03-02T03:25:22;4.40;;;1.30;;
2972;SDS011;1496;51.404;7.232;2024-03-02T03:27:48;4.77;;;1.20;;
2972;SDS011;1496;51.404;7.232;2024-03-02T03:30:14;3.70;;;1.20;;
2972;SDS011;1496;51.404;7.232;2024-03-02T03:32:39;5.77;;;1.40;;
2972;SDS011;1496;51.404;7.232;2024-03-02T03:35:06;1.77;;;1.17;;
2972;SDS011;1496;51.404;7.232;2024-03-02T03:37:32;5.53;;;1.17;;
2972;SDS011;1496;51.404;7.232;2024-03-02T03:39:58;1.77;;;1.20;;
2972;SDS011;1496;51.404;7.232;2024-03-02T03:42:32;1.93;;;1.57;;
2972;SDS011;1496;51.404;7.232;2024-03-02T03:44:57;4.50;;;1.03;;
2972;SDS011;1496;51.404;7.232;2024-03-02T03:47:23;2.53;;;1.13;;
2972;SDS011;1496;51.404;7.232;2024-03-02T03:49:49;2.10;;;1.53;;
2972;SDS011;1496;51.404;7.232;2024-03-02T03:52:15;2.90;;;1.43;;
2972;SDS011;1496;51.404;7.232;2024-03-02T03:54:41;2.07;;;1.17;;
2972;SDS011;1496;51.404;7.232;2024-03-02T03:57:08;2.17;;;1.20;;
2972;SDS011;1496;51.404;7.232;2024-03-02T03:59:33;2.10;;;1.10;;
2972;SDS011;1496;51.404;7.232;2024-03-02T04:01:59;1.73;;;1.10;;
2972;SDS011;1496;51.404;7.232;2024-03-02T04:04:25;1.93;;;1.07;;
2972;SDS011;1496;51.404;7.232;2024-03-02T04:06:50;1.80;;;1.00;;
2972;SDS011;1496;51.404;7.232;2024-03-02T04:09:16;1.30;;;1.10;;
2972;SDS011;1496;51.404;7.232;2024-03-02T04:11:41;2.37;;;1.20;;
2972;SDS011;1496;51.404;7.232;2024-03-02T04:14:08;3.00;;;1.80;;
2972;SDS011;1496;51.404;7.232;2024-03-02T04:16:33;2.77;;;1.33;;
2972;SDS011;1496;51.404;7.232;2024-03-02T04:18:59;2.60;;;1.00;;
2972;SDS011;1496;51.404;7.232;2024-03-02T04:21:25;2.50;;;1.33;;
2972;SDS011;1496;51.404;7.232;2024-03-02T04:23:50;1.40;;;1.20;;
2972;SDS011;1496;51.404;7.232;2024-03-02T04:26:16;1.80;;;1.30;;
2972;SDS011;1496;51.404;7.232;2024-03-02T04:28:50;2.70;;;1.27;;
2972;SDS011;1496;51.404;7.232;2024-03-02T04:31:15;2.53;;;1.70;;
2972;SDS011;1496;51.404;7.232;2024-03-02T04:33:54;2.40;;;2.20;;
2972;SDS011;1496;51.404;7.232;2024-03-02T04:36:20;4.20;;;1.37;;
2972;SDS011;1496;51.404;7.232;2024-03-02T04:38:46;1.30;;;1.00;;
2972;SDS011;1496;51.404;7.232;2024-03-02T04:41:12;3.27;;;1.43;;
2972;SDS011;1496;51.404;7.232;2024-03-02T04:43:37;1.40;;;1.03;;
2972;SDS011;1496;51.404;7.232;2024-03-02T04:46:04;2.20;;;1.00;;
2972;SDS011;1496;51.404;7.232;2024-03-02T04:48:30;2.50;;;1.40;;
2972;SDS011;1496;51.404;7.232;2024-03-02T04:50:56;2.23;;;1.03;;
2972;SDS011;1496;51.404;7.232;2024-03-02T04:53:22;1.90;;;1.10;;
2972;SDS011;1496;51.404;7.232;2024-03-02T04:55:47;1.87;;;1.20;;
2972;SDS011;1496;51.404;7.232;2024-03-02T04:58:19;1.77;;;1.00;;
2972;SDS011;1496;51.404;7.232;2024-03-02T05:00:44;2.27;;;1.20;;
2972;SDS011;1496;51.404;7.232;2024-03-02T05:03:16;2.20;;;1.20;;
2972;SDS011;1496;51.404;7.232;2024-03-02T05:05:42;3.27;;;1.27;;
2972;SDS011;1496;51.404;7.232;2024-03-02T05:08:07;3.67;;;1.40;;
2972;SDS011;1496;51.404;7.232;2024-03-02T05:10:42;1.70;;;1.40;;
2972;SDS011;1496;51.404;7.232;2024-03-02T05:13:08;2.93;;;1.73;;
2972;SDS011;1496;51.404;7.232;2024-03-02T05:15:33;2.87;;;1.40;;
2972;SDS011;1496;51.404;7.232;2024-03-02T05:17:59;1.70;;;1.27;;
2972;SDS011;1496;51.404;7.232;2024-03-02T05:20:25;2.80;;;1.20;;
2972;SDS011;1496;51.404;7.232;2024-03-02T05:22:50;2.90;;;0.90;;
2972;SDS011;1496;51.404;7.232;2024-03-02T05:25:16;3.47;;;1.20;;
2972;SDS011;1496;51.404;7.232;2024-03-02T05:27:42;3.23;;;1.70;;
2972;SDS011;1496;51.404;7.232;2024-03-02T05:30:07;2.90;;;1.00;;
2972;SDS011;1496;51.404;7.232;2024-03-02T05:32:33;2.70;;;1.50;;
2972;SDS011;1496;51.404;7.232;2024-03-02T05:34:59;3.57;;;1.57;;
2972;SDS011;1496;51.404;7.232;2024-03-02T05:37:25;2.27;;;1.80;;
2972;SDS011;1496;51.404;7.232;2024-03-02T05:39:50;2.60;;;1.47;;
2972;SDS011;1496;51.404;7.232;2024-03-02T05:42:16;2.60;;;1.33;;
2972;SDS011;1496;51.404;7.232;2024-03-02T05:44:41;2.33;;;1.80;;
2972;SDS011;1496;51.404;7.232;2024-03-02T05:47:07;2.70;;;1.70;;
2972;SDS011;1496;51.404;7.232;2024-03-02T05:49:35;2.83;;;1.30;;
2972;SDS011;1496;51.404;7.232;2024-03-02T05:52:05;2.63;;;1.90;;
2972;SDS011;1496;51.404;7.232;2024-03-02T05:54:32;6.80;;;1.73;;
2972;SDS011;1496;51.404;7.232;2024-03-02T05:56:57;3.37;;;2.03;;
2972;SDS011;1496;51.404;7.232;2024-03-02T05:59:41;4.37;;;2.33;;
2972;SDS011;1496;51.404;7.232;2024-03-02T06:02:07;3.90;;;1.53;;
2972;SDS011;1496;51.404;7.232;2024-03-02T06:04:32;4.53;;;2.10;;
2972;SDS011;1496;51.404;7.232;2024-03-02T06:06:58;3.47;;;1.73;;
2972;SDS011;1496;51.404;7.232;2024-03-02T06:09:32;2.80;;;1.90;;
2972;SDS011;1496;51.404;7.232;2024-03-02T06:11:57;2.90;;;2.00;;
2972;SDS011;1496;51.404;7.232;2024-03-02T06:14:23;3.63;;;2.13;;
2972;SDS011;1496;51.404;7.232;2024-03-02T06:16:49;6.50;;;2.30;;
2972;SDS011;1496;51.404;7.232;2024-03-02T06:19:15;4.90;;;2.30;;
2972;SDS011;1496;51.404;7.232;2024-03-02T06:21:40;4.27;;;2.20;;
2972;SDS011;1496;51.404;7.232;2024-03-02T06:24:06;4.23;;;2.20;;
2972;SDS011;1496;51.404;7.232;2024-03-02T06:26:31;4.43;;;2.47;;
2972;SDS011;1496;51.404;7.232;2024-03-02T06:28:57;4.87;;;2.70;;
2972;SDS011;1496;51.404;7.232;2024-03-02T06:31:23;4.23;;;2.43;;
2972;SDS011;1496;51.404;7.232;2024-03-02T06:33:48;4.13;;;3.00;;
2972;SDS011;1496;51.404;7.232;2024-03-02T06:36:14;4.30;;;2.40;;
2972;SDS011;1496;51.404;7.232;2024-03-02T06:38:42;3.20;;;2.10;;
2972;SDS011;1496;51.404;7.232;2024-03-02T06:41:07;4.43;;;2.53;;
2972;SDS011;1496;51.404;7.232;2024-03-02T06:43:33;3.23;;;2.00;;
2972;SDS011;1496;51.404;7.232;2024-03-02T06:45:59;3.73;;;2.13;;
2972;SDS011;1496;51.404;7.232;2024-03-02T06:48:27;7.23;;;2.50;;
2972;SDS011;1496;51.404;7.232;2024-03-02T06:50:55;3.63;;;2.60;;
2972;SDS011;1496;51.404;7.232;2024-03-02T06:53:21;4.63;;;2.77;;
2972;SDS011;1496;51.404;7.232;2024-03-02T06:55:47;3.80;;;2.60;;
2972;SDS011;1496;51.404;7.232;2024-03-02T06:58:13;4.20;;;2.67;;
2972;SDS011;1496;51.404;7.232;2024-03-02T07:00:40;4.93;;;2.93;;
2972;SDS011;1496;51.404;7.232;2024-03-02T07:03:06;4.33;;;2.60;;
2972;SDS011;1496;51.404;7.232;2024-03-02T07:05:31;5.90;;;2.73;;
2972;SDS011;1496;51.404;7.232;2024-03-02T07:07:57;4.23;;;2.70;;
2972;SDS011;1496;51.404;7.232;2024-03-02T07:10:23;6.30;;;3.03;;
2972;SDS011;1496;51.404;7.232;2024-03-02T07:12:49;4.03;;;2.50;;
2972;SDS011;1496;51.404;7.232;2024-03-02T07:15:15;6.30;;;3.10;;
2972;SDS011;1496;51.404;7.232;2024-03-02T07:17:55;3.70;;;2.40;;
2972;SDS011;1496;51.404;7.232;2024-03-02T07:20:21;5.63;;;2.90;;
2972;SDS011;1496;51.404;7.232;2024-03-02T07:22:46;4.50;;;2.70;;
2972;SDS011;1496;51.404;7.232;2024-03-02T07:25:12;3.30;;;2.80;;
2972;SDS011;1496;51.404;7.232;2024-03-02T07:27:38;2.83;;;2.10;;
2972;SDS011;1496;51.404;7.232;2024-03-02T07:30:04;2.40;;;1.93;;
2972;SDS011;1496;51.404;7.232;2024-03-02T07:32:31;3.20;;;2.43;;
2972;SDS011;1496;51.404;7.232;2024-03-02T07:34:57;5.50;;;2.77;;
2972;SDS011;1496;51.404;7.232;2024-03-02T07:37:23;4.53;;;2.97;;
2972;SDS011;1496;51.404;7.232;2024-03-02T07:39:49;5.70;;;3.33;;
2972;SDS011;1496;51.404;7.232;2024-03-02T07:42:16;6.67;;;2.60;;
2972;SDS011;1496;51.404;7.232;2024-03-02T07:44:43;5.57;;;2.80;;
2972;SDS011;1496;51.404;7.232;2024-03-02T07:47:10;3.87;;;2.93;;
2972;SDS011;1496;51.404;7.232;2024-03-02T07:49:36;5.17;;;2.70;;
2972;SDS011;1496;51.404;7.232;2024-03-02T07:52:02;3.47;;;2.30;;
2972;SDS011;1496;51.404;7.232;2024-03-02T07:54:27;7.77;;;2.90;;
2972;SDS011;1496;51.404;7.232;2024-03-02T07:56:53;4.23;;;2.30;;
2972;SDS011;1496;51.404;7.232;2024-03-02T07:59:19;6.90;;;3.63;;
2972;SDS011;1496;51.404;7.232;2024-03-02T08:01:45;4.60;;;2.20;;
2972;SDS011;1496;51.404;7.232;2024-03-02T08:04:11;3.40;;;2.37;;
2972;SDS011;1496;51.404;7.232;2024-03-02T08:06:37;4.30;;;2.73;;
2972;SDS011;1496;51.404;7.232;2024-03-02T08:09:02;6.03;;;2.40;;
2972;SDS011;1496;51.404;7.232;2024-03-02T08:11:34;7.20;;;3.20;;
2972;SDS011;1496;51.404;7.232;2024-03-02T08:14:00;6.17;;;2.27;;
2972;SDS011;1496;51.404;7.232;2024-03-02T08:16:25;4.30;;;2.80;;
2972;SDS011;1496;51.404;7.232;2024-03-02T08:18:52;3.40;;;2.07;;
2972;SDS011;1496;51.404;7.232;2024-03-02T08:21:18;3.43;;;2.17;;
2972;SDS011;1496;51.404;7.232;2024-03-02T08:23:55;6.17;;;2.70;;
2972;SDS011;1496;51.404;7.232;2024-03-02T08:26:20;2.50;;;2.17;;
2972;SDS011;1496;51.404;7.232;2024-03-02T08:28:46;4.20;;;2.10;;
2972;SDS011;1496;51.404;7.232;2024-03-02T08:31:12;3.27;;;1.80;;
2972;SDS011;1496;51.404;7.232;2024-03-02T08:33:38;4.17;;;3.20;;
2972;SDS011;1496;51.404;7.232;2024-03-02T08:36:03;5.77;;;2.20;;
2972;SDS011;1496;51.404;7.232;2024-03-02T08:38:30;3.23;;;2.40;;
2972;SDS011;1496;51.404;7.232;2024-03-02T08:40:55;2.53;;;1.40;;
2972;SDS011;1496;51.404;7.232;2024-03-02T08:43:21;3.63;;;1.90;;
2972;SDS011;1496;51.404;7.232;2024-03-02T08:45:47;3.77;;;2.07;;
2972;SDS011;1496;51.404;7.232;2024-03-02T08:48:13;6.43;;;2.27;;
2972;SDS011;1496;51.404;7.232;2024-03-02T08:50:39;4.53;;;2.43;;
2972;SDS011;1496;51.404;7.232;2024-03-02T08:53:05;3.63;;;2.37;;
2972;SDS011;1496;51.404;7.232;2024-03-02T08:55:30;2.60;;;1.90;;
2972;SDS011;1496;51.404;7.232;2024-03-02T08:57:56;2.90;;;2.00;;
2972;SDS011;1496;51.404;7.232;2024-03-02T09:00:22;5.00;;;2.17;;
2972;SDS011;1496;51.404;7.232;2024-03-02T09:02:48;6.23;;;2.20;;
2972;SDS011;1496;51.404;7.232;2024-03-02T09:05:14;4.43;;;1.93;;
2972;SDS011;1496;51.404;7.232;2024-03-02T09:07:40;2.80;;;2.03;;
2972;SDS011;1496;51.404;7.232;2024-03-02T09:10:06;3.37;;;1.83;;
2972;SDS011;1496;51.404;7.232;2024-03-02T09:12:32;3.07;;;1.90;;
2972;SDS011;1496;51.404;7.232;2024-03-02T09:14:59;4.97;;;2.10;;
2972;SDS011;1496;51.404;7.232;2024-03-02T09:17:26;2.33;;;1.57;;
2972;SDS011;1496;51.404;7.232;2024-03-02T09:19:51;1.83;;;1.40;;
2972;SDS011;1496;51.404;7.232;2024-03-02T09:22:21;2.53;;;1.50;;
2972;SDS011;1496;51.404;7.232;2024-03-02T09:24:47;1.53;;;1.23;;
2972;SDS011;1496;51.404;7.232;2024-03-02T09:27:12;1.83;;;1.20;;
2972;SDS011;1496;51.404;7.232;2024-03-02T09:29:38;5.03;;;1.53;;
2972;SDS011;1496;51.404;7.232;2024-03-02T09:32:04;1.63;;;1.10;;
2972;SDS011;1496;51.404;7.232;2024-03-02T09:34:31;1.70;;;1.13;;
2972;SDS011;1496;51.404;7.232;2024-03-02T09:36:57;2.13;;;1.27;;
2972;SDS011;1496;51.404;7.232;2024-03-02T09:39:23;2.50;;;1.40;;
2972;SDS011;1496;51.404;7.232;2024-03-02T09:41:50;2.30;;;1.73;;
2972;SDS011;1496;51.404;7.232;2024-03-02T09:44:16;2.10;;;1.07;;
2972;SDS011;1496;51.404;7.232;2024-03-02T09:46:42;1.80;;;1.00;;
2972;SDS011;1496;51.404;7.232;2024-03-02T09:49:09;1.77;;;1.20;;
2972;SDS011;1496;51.404;7.232;2024-03-02T09:51:36;2.90;;;1.13;;
2972;SDS011;1496;51.404;7.232;2024-03-02T09:54:04;2.37;;;1.00;;
2972;SDS011;1496;51.404;7.232;2024-03-02T09:56:32;1.40;;;1.00;;
2972;SDS011;1496;51.404;7.232;2024-03-02T09:58:58;3.53;;;1.30;;
2972;SDS011;1496;51.404;7.232;2024-03-02T10:01:24;1.70;;;0.80;;
2972;SDS011;1496;51.404;7.232;2024-03-02T10:03:49;2.30;;;1.27;;
2972;SDS011;1496;51.404;7.232;2024-03-02T10:06:22;3.00;;;1.40;;
2972;SDS011;1496;51.404;7.232;2024-03-02T10:08:49;2.93;;;1.23;;
2972;SDS011;1496;51.404;7.232;2024-03-02T10:11:31;5.57;;;1.10;;
2972;SDS011;1496;51.404;7.232;2024-03-02T10:14:05;1.93;;;1.17;;
2972;SDS011;1496;51.404;7.232;2024-03-02T10:16:38;1.60;;;0.93;;
2972;SDS011;1496;51.404;7.232;2024-03-02T10:21:48;1.83;;;0.80;;
2972;SDS011;1496;51.404;7.232;2024-03-02T10:24:15;1.33;;;0.80;;
2972;SDS011;1496;51.404;7.232;2024-03-02T10:26:42;1.63;;;1.33;;
2972;SDS011;1496;51.404;7.232;2024-03-02T10:29:08;3.30;;;1.23;;
2972;SDS011;1496;51.404;7.232;2024-03-02T10:31:36;3.60;;;1.47;;
2972;SDS011;1496;51.404;7.232;2024-03-02T10:34:03;2.20;;;1.10;;
2972;SDS011;1496;51.404;7.232;2024-03-02T10:36:29;3.07;;;1.20;;
2972;SDS011;1496;51.404;7.232;2024-03-02T10:38:57;4.10;;;1.00;;
2972;SDS011;1496;51.404;7.232;2024-03-02T10:41:26;2.50;;;1.00;;
2972;SDS011;1496;51.404;7.232;2024-03-02T10:43:52;2.00;;;1.00;;
2972;SDS011;1496;51.404;7.232;2024-03-02T10:46:24;2.93;;;1.30;;
2972;SDS011;1496;51.404;7.232;2024-03-02T10:48:54;1.90;;;1.10;;
2972;SDS011;1496;51.404;7.232;2024-03-02T10:51:19;2.47;;;1.10;;
2972;SDS011;1496;51.404;7.232;2024-03-02T10:53:45;2.13;;;1.10;;
2972;SDS011;1496;51.404;7.232;2024-03-02T10:56:11;1.80;;;1.10;;
2972;SDS011;1496;51.404;7.232;2024-03-02T10:58:43;2.13;;;1.00;;
2972;SDS011;1496;51.404;7.232;2024-03-02T11:01:11;1.90;;;1.10;;
2972;SDS011;1496;51.404;7.232;2024-03-02T11:03:38;1.70;;;1.20;;
2972;SDS011;1496;51.404;7.232;2024-03-02T11:06:07;1.27;;;0.90;;
2972;SDS011;1496;51.404;7.232;2024-03-02T11:08:34;2.13;;;0.90;;
2972;SDS011;1496;51.404;7.232;2024-03-02T11:11:06;3.70;;;1.00;;
2972;SDS011;1496;51.404;7.232;2024-03-02T11:13:37;3.63;;;1.00;;
2972;SDS011;1496;51.404;7.232;2024-03-02T11:16:09;1.50;;;0.87;;
2972;SDS011;1496;51.404;7.232;2024-03-02T11:18:43;1.30;;;0.80;;
2972;SDS011;1496;51.404;7.232;2024-03-02T11:21:09;1.60;;;0.87;;
2972;SDS011;1496;51.404;7.232;2024-03-02T11:23:35;2.07;;;1.10;;
2972;SDS011;1496;51.404;7.232;2024-03-02T11:28:46;5.53;;;1.20;;
2972;SDS011;1496;51.404;7.232;2024-03-02T11:31:12;3.43;;;1.20;;
2972;SDS011;1496;51.404;7.232;2024-03-02T11:33:37;2.50;;;1.17;;
2972;SDS011;1496;51.404;7.232;2024-03-02T11:36:03;2.80;;;0.97;;
2972;SDS011;1496;51.404;7.232;2024-03-02T11:38:32;2.33;;;0.90;;
2972;SDS011;1496;51.404;7.232;2024-03-02T11:40:59;2.53;;;1.50;;
2972;SDS011;1496;51.404;7.232;2024-03-02T11:43:27;1.77;;;0.90;;
2972;SDS011;1496;51.404;7.232;2024-03-02T11:45:57;1.30;;;0.80;;
2972;SDS011;1496;51.404;7.232;2024-03-02T11:48:24;4.10;;;1.27;;
2972;SDS011;1496;51.404;7.232;2024-03-02T11:50:51;2.07;;;1.20;;
2972;SDS011;1496;51.404;7.232;2024-03-02T11:53:16;2.20;;;1.10;;
2972;SDS011;1496;51.404;7.232;2024-03-02T11:55:43;1.43;;;0.80;;
2972;SDS011;1496;51.404;7.232;2024-03-02T11:58:13;2.43;;;1.10;;
2972;SDS011;1496;51.404;7.232;2024-03-02T12:00:40;1.47;;;1.20;;
2972;SDS011;1496;51.404;7.232;2024-03-02T12:03:06;5.90;;;1.13;;
2972;SDS011;1496;51.404;7.232;2024-03-02T12:05:33;4.13;;;0.90;;
2972;SDS011;1496;51.404;7.232;2024-03-02T12:08:01;2.83;;;1.20;;
2972;SDS011;1496;51.404;7.232;2024-03-02T12:10:34;2.10;;;1.30;;
2972;SDS011;1496;51.404;7.232;2024-03-02T12:13:05;1.30;;;0.90;;
2972;SDS011;1496;51.404;7.232;2024-03-02T12:15:35;1.20;;;0.77;;
2972;SDS011;1496;51.404;7.232;2024-03-02T12:18:02;1.60;;;0.80;;
2972;SDS011;1496;51.404;7.232;2024-03-02T12:20:29;1.80;;;0.70;;
2972;SDS011;1496;51.404;7.232;2024-03-02T12:23:00;1.67;;;1.07;;
2972;SDS011;1496;51.404;7.232;2024-03-02T12:25:27;1.77;;;1.00;;
2972;SDS011;1496;51.404;7.232;2024-03-02T12:27:55;1.30;;;0.80;;
2972;SDS011;1496;51.404;7.232;2024-03-02T12:30:22;1.57;;;0.80;;
2972;SDS011;1496;51.404;7.232;2024-03-02T12:32:48;1.40;;;0.80;;
2972;SDS011;1496;51.404;7.232;2024-03-02T12:35:14;1.77;;;0.80;;
2972;SDS011;1496;51.404;7.232;2024-03-02T12:37:47;1.40;;;0.80;;
2972;SDS011;1496;51.404;7.232;2024-03-02T12:40:14;1.10;;;0.70;;
2972;SDS011;1496;51.404;7.232;2024-03-02T12:42:43;1.33;;;0.87;;
2972;SDS011;1496;51.404;7.232;2024-03-02T12:45:09;1.77;;;0.87;;
2972;SDS011;1496;51.404;7.232;2024-03-02T12:47:36;4.23;;;1.00;;
2972;SDS011;1496;51.404;7.232;2024-03-02T12:50:03;1.10;;;0.70;;
2972;SDS011;1496;51.404;7.232;2024-03-02T12:52:29;1.30;;;0.70;;
2972;SDS011;1496;51.404;7.232;2024-03-02T12:54:55;2.90;;;0.83;;
2972;SDS011;1496;51.404;7.232;2024-03-02T12:57:26;1.10;;;0.80;;
2972;SDS011;1496;51.404;7.232;2024-03-02T13:00:00;2.53;;;0.70;;
2972;SDS011;1496;51.404;7.232;2024-03-02T13:02:34;0.93;;;0.63;;
2972;SDS011;1496;51.404;7.232;2024-03-02T13:05:00;1.40;;;0.90;;
2972;SDS011;1496;51.404;7.232;2024-03-02T13:07:27;3.07;;;1.10;;
2972;SDS011;1496;51.404;7.232;2024-03-02T13:09:54;1.20;;;0.80;;
2972;SDS011;1496;51.404;7.232;2024-03-02T13:12:20;1.40;;;0.90;;
2972;SDS011;1496;51.404;7.232;2024-03-02T13:14:48;1.90;;;0.70;;
2972;SDS011;1496;51.404;7.232;2024-03-02T13:17:15;1.27;;;0.67;;
2972;SDS011;1496;51.404;7.232;2024-03-02T13:22:39;1.03;;;0.63;;
2972;SDS011;1496;51.404;7.232;2024-03-02T13:25:05;2.93;;;0.80;;
2972;SDS011;1496;51.404;7.232;2024-03-02T13:27:33;2.30;;;0.50;;
2972;SDS011;1496;51.404;7.232;2024-03-02T13:29:59;1.30;;;0.60;;
2972;SDS011;1496;51.404;7.232;2024-03-02T13:32:25;0.97;;;0.67;;
2972;SDS011;1496;51.404;7.232;2024-03-02T13:34:51;1.50;;;0.70;;
2972;SDS011;1496;51.404;7.232;2024-03-02T13:37:16;1.13;;;0.73;;
2972;SDS011;1496;51.404;7.232;2024-03-02T13:39:42;1.10;;;0.70;;
2972;SDS011;1496;51.404;7.232;2024-03-02T13:42:08;1.10;;;0.50;;
2972;SDS011;1496;51.404;7.232;2024-03-02T13:44:36;1.20;;;0.77;;
2972;SDS011;1496;51.404;7.232;2024-03-02T13:47:02;1.20;;;0.70;;
2972;SDS011;1496;51.404;7.232;2024-03-02T13:49:29;2.60;;;0.80;;
2972;SDS011;1496;51.404;7.232;2024-03-02T13:52:05;1.00;;;0.80;;
2972;SDS011;1496;51.404;7.232;2024-03-02T13:54:42;1.50;;;1.00;;
2972;SDS011;1496;51.404;7.232;2024-03-02T13:57:10;1.57;;;1.40;;
2972;SDS011;1496;51.404;7.232;2024-03-02T13:59:36;1.57;;;1.00;;
2972;SDS011;1496;51.404;7.232;2024-03-02T14:02:03;1.87;;;0.90;;
2972;SDS011;1496;51.404;7.232;2024-03-02T14:04:32;1.10;;;0.70;;
2972;SDS011;1496;51.404;7.232;2024-03-02T14:06:59;2.37;;;1.00;;
2972;SDS011;1496;51.404;7.232;2024-03-02T14:09:25;1.43;;;1.07;;
2972;SDS011;1496;51.404;7.232;2024-03-02T14:11:52;1.30;;;0.73;;
2972;SDS011;1496;51.404;7.232;2024-03-02T14:14:18;1.60;;;0.83;;
2972;SDS011;1496;51.404;7.232;2024-03-02T14:16:44;1.33;;;0.83;;
2972;SDS011;1496;51.404;7.232;2024-03-02T14:19:10;1.47;;;0.80;;
2972;SDS011;1496;51.404;7.232;2024-03-02T14:21:37;1.30;;;1.00;;
2972;SDS011;1496;51.404;7.232;2024-03-02T14:24:03;2.60;;;0.70;;
2972;SDS011;1496;51.404;7.232;2024-03-02T14:26:29;3.07;;;0.90;;
2972;SDS011;1496;51.404;7.232;2024-03-02T14:28:55;1.43;;;0.80;;
2972;SDS011;1496;51.404;7.232;2024-03-02T14:31:20;1.53;;;1.23;;
2972;SDS011;1496;51.404;7.232;2024-03-02T14:33:46;2.03;;;1.00;;
2972;SDS011;1496;51.404;7.232;2024-03-02T14:36:12;1.63;;;0.70;;
2972;SDS011;1496;51.404;7.232;2024-03-02T14:38:38;1.30;;;0.73;;
2972;SDS011;1496;51.404;7.232;2024-03-02T14:41:04;1.60;;;0.80;;
2972;SDS011;1496;51.404;7.232;2024-03-02T14:43:30;2.80;;;1.90;;
2972;SDS011;1496;51.404;7.232;2024-03-02T14:45:56;7.57;;;5.70;;
2972;SDS011;1496;51.404;7.232;2024-03-02T14:48:23;4.07;;;3.23;;
2972;SDS011;1496;51.404;7.232;2024-03-02T14:50:49;8.83;;;7.07;;
2972;SDS011;1496;51.404;7.232;2024-03-02T14:53:16;4.73;;;1.40;;
2972;SDS011;1496;51.404;7.232;2024-03-02T14:55:42;2.70;;;1.30;;
2972;SDS011;1496;51.404;7.232;2024-03-02T14:58:07;1.50;;;1.00;;
2972;SDS011;1496;51.404;7.232;2024-03-02T15:00:34;1.80;;;1.30;;
2972;SDS011;1496;51.404;7.232;2024-03-02T15:03:00;1.43;;;1.13;;
2972;SDS011;1496;51.404;7.232;2024-03-02T15:05:26;2.80;;;0.93;;
2972;SDS011;1496;51.404;7.232;2024-03-02T15:07:52;2.20;;;1.40;;
2972;SDS011;1496;51.404;7.232;2024-03-02T15:10:18;1.87;;;1.30;;
2972;SDS011;1496;51.404;7.232;2024-03-02T15:12:44;1.83;;;1.00;;
2972;SDS011;1496;51.404;7.232;2024-03-02T15:15:10;6.77;;;3.10;;
2972;SDS011;1496;51.404;7.232;2024-03-02T15:17:36;4.27;;;2.00;;
2972;SDS011;1496;51.404;7.232;2024-03-02T15:20:02;2.87;;;2.40;;
2972;SDS011;1496;51.404;7.232;2024-03-02T15:22:32;2.57;;;1.87;;
2972;SDS011;1496;51.404;7.232;2024-03-02T15:24:58;3.37;;;2.50;;
2972;SDS011;1496;51.404;7.232;2024-03-02T15:27:23;2.13;;;1.60;;
2972;SDS011;1496;51.404;7.232;2024-03-02T15:29:50;3.70;;;1.60;;